Scroll down
FLIGHT INFORMATION
American Airlines

AAL1163

At Arrival Gate

KLAX
 KORD
DATE: 2020-12-13
GATE: 41
GATE DEPARTURE: 23:58
TAKEOFF: 00:12
DATE: 2020-12-14
GATE: B16
LANDING: 03:20
GATE ARRIVAL: 03:32
FLIGHT DATA
Crew: 
Speed: 
505 kts
Altitude: 
35,023 ft
Stage Length: 
1,513.0 nm
Block Time: 
3.5 hrs
Flight Time: 
3.1 hrs
Fuel Used: 
57,076 lb
Cleared Route: KLAX HIIPR ADORE SHAEF PEVEE HOLTZ DOTSS EYEDL HOMER CLEEE PKE LANCY DRK KEYKE GUP CIM LBL VARNR ICT ROKNE DOSOA BUM SCAWT ELSTO WELTS MCDEE CASHN VINCA MAROC TRICH TRTLL HIHRY RINNO JORJO MONKZ TONIE HAZIL RW28C
TRACK DATA
50,000 ft 1,000 kts
AIRCRAFT INFO AND CUMULATIVE STATS
Aircraft Type: 
B77W
Registration: 
SELCAL: 
CPDJ
MSN/LN: 
31549 / 1257
Operator: 
Total Flights: 
6
Total Block Time: 
48.7 hrs
Total Flight Time: 
46.6 hrs
Total Fuel Used: 
842,296 lb
DATALINK LOG | Newest first | Current as of: 2022-11-28 18:15:35
LABEL SEQUENCE CONTENT Dn/Up
QD335303:32 28▼ Dn
QC214103:20▼ Dn
2U1209KORD 130251Z 32010KT 10SM SCT020 OVC037 01/M03 A2999 RMK AO2 SLP160 T00061033 53018 $▲ Up
2S1334KORD▼ Dn
2U3713KORD 130151Z 33011KT 10SM SCT020 OVC036 01/M02 A2996 RMK AO2 SLP150 T00111022 $▲ Up
5Z390414 DEC 20 02:37:31z / FLT DECK GOOD / ACF POS GOOD / GRND SERVICES GOOD / MAINT GOOD▼ Dn
GA3914GATE B16▲ Up
GR3903KORD 03:18 MAAS 00 YP/UM 00/00 WCHR/S/C 00/00/00 HI-VAL NO DIPL/VIP YES▼ Dn
2S3903KORD▼ Dn
463805/OV PKE /TM 0036 /FL350 /TP B773 /SK BKN /TA -53 /WV 305/72 /RM NICE EVE FOR FLYING▼ Dn
QB134400:12▼ Dn
2U0905KLAX 122253Z 26012KT 10SM FEW025 SCT250 16/11 A2999 RMK AO2 SLP155 T01610106▲ Up
2S1042KLAX▼ Dn
QA593323:58 85.1▼ Dn
2U5647KLAX 122253Z 26012KT 10SM FEW025 SCT250 16/11 A2999 RMK AO2 SLP155 T01610106▲ Up
2S5630KLAX▼ Dn
5U4609KORD 130342Z 33012G19KT 10SM OVC012 02/M01 A2985▲ Up
2U4606KLAX 122253Z 26012KT 10SM FEW025 SCT250 16/11 A2999 RMK AO2 SLP155 T01610106▲ Up
5S4722KORD▼ Dn
2S4722KLAX▼ Dn
A34631CLEARED TO KORD VIA DOTSS2 CLEEE PKE J134 ICT J19 DOSOA J19 ELSTO WELTS TRTLL6. SQUAWK 6221.▲ Up
Q04520[LINK ACK]▲ Up
Q04520[LINK TEST]▼ Dn


AIRCRAFT HISTORY
FLIGHT DATE FLIGHT NO. ORIGIN DESTINATION CLEARED ROUTE BLOCK TIME FLIGHT TIME FUEL USED PILOT
2021-09-26AAL926KDFW RKSI KDFW SPERA JGIRL CORTS BIGGD CMORE BLECO ZEMMA ICT LNK FAR HML ZOMTA YWG 55N00 61N10 64N20 67N30 ADREW LISKI BABAD PEMID GONAM ABILA RULOD ADALU OSKON GUBAD TINID IDNOR RIPTA BANOT RELDI DIREB SOPIN NILOT GITAK GIRUD LUSAK KUNON LUPAT OBUTA IBOLI OLGIR SUKOP LAPNI BESPA OGNIT PENOK ODEKA MAGIT JMU IGADO HRB PABKI PAGDO ISBOP NULRA LJB LEMOT NUBKI BIDIB ISKEM TOSID NODAL CHI SANKO OBDIS DONVO AGAVO RILRO GONAV BODOL REBIT COWAY PINGO CW001 CW002 CW003 CW004 CW005 PAMBI RW34R14.3 hrs13.9 hrs270,304 lbRandall Smith
2021-03-24AAL8439RJAA KDFW RJAA GULBO TASID NOLAX IDLAN ADNAP ADGOR AGEDI PASRO POWAL PLADO PINSO PINTT PTZGR CHUUK ODK CJAYY GRIZZ HMPTN KATCH FINGS YAZNB CFPXC TOU OLM SUMMA WANTA JELTI HOVEL VELUY BYI PIMIE NAGNE BONGO PITMN TAYLR GOSIP KENTO PNH TURKI KDFW11.2 hrs10.8 hrs187,718 lbRyan Syferd
2020-12-13AAL2822KORD RJAA KORD PMPKN NEATO DLLAN RONIC BAE BGOSH DLH 5096N 52N00 53N10 ELKIE 55N30 57N40 59N50 60N60 NOLTI NAYLD NULUK ONEIL OPAKE OLCOT OPHET OGDEN OMOTO OPULO ONEMU OATIS VESET UGTAN NOGIX OLDIV LESPO SUPOK SOFIA AA458 AA459 AA460 AA461 BELKS PEAKS TYLER GIINA RW34L12.5 hrs12.2 hrs215,578 lbGeorge
2020-12-13AAL1163KLAX KORD KLAX HIIPR ADORE SHAEF PEVEE HOLTZ DOTSS EYEDL HOMER CLEEE PKE LANCY DRK KEYKE GUP CIM LBL VARNR ICT ROKNE DOSOA BUM SCAWT ELSTO WELTS MCDEE CASHN VINCA MAROC TRICH TRTLL HIHRY RINNO JORJO MONKZ TONIE HAZIL RW28C3.5 hrs3.1 hrs57,076 lbGeorge
2020-12-12AAL254PHOG KLAX PHOG CLUTS CEBEN CIVIT FLEXX GITLE GALIP AUDIA SNAXX SERCO HUULL GNZZO RYDRR KEVVI BAYST JUUSE CLIFY DAHJR GADDO HUNDA RW25L5 hrs4.6 hrs79,625 lbGeorge
2020-12-05AAL520KDFW KPHX 2.2 hrs1.9 hrs31,994 lbGeorge